Humidity-temperature Sensor

Selected Measurement Type: Air Temperature

 
Air Temperature [°C]     6 entries per hour
Showing data from 10/16/2015 (00:00:00 Z) to 10/15/2015 (00:01:00 Z)
Previous Next [ Day | 3-Days | 7-Days ]
First Last
Prev [ Day | 3-Days | 7-Days ] Next
First Last

Start Time:     :
End Time:     :     
Time (in GMT) :00 :50 :40 :30 :20 :10
Previous Next [ Day | 3-Days | 7-Days ]
First Last
Prev [ Day | 3-Days | 7-Days ] Next
First Last


123 => good data
MM => data is determined as missing
-- => data not received/configured
Back to Top Back to Top
10/16/2015 00:00 to 23:10 28.59 28.61 28.65 28.62 28.59 28.59
10/15/2015 23:00 to 22:10 28.49 28.51 28.48 28.47 28.65 28.49
10/15/2015 22:00 to 21:10 28.37 28.52 28.56 28.39 28.35 28.11
10/15/2015 21:00 to 20:10 28.47 28.56 28.52 28.56 28.74 28.66
10/15/2015 20:00 to 19:10 28.58 28.50 28.54 28.46 28.09 28.44
10/15/2015 19:00 to 18:10 28.58 28.49 28.49 28.54 28.53 28.54
10/15/2015 18:00 to 17:10 28.44 28.53 28.65 28.53 28.57 28.31
10/15/2015 17:00 to 16:10 28.72 28.71 28.50 28.28 28.37 28.43
10/15/2015 16:00 to 15:10 28.33 28.36 28.28 28.06 28.09 28.05
10/15/2015 15:00 to 14:10 28.06 28.10 28.06 28.03 28.06 27.94
10/15/2015 14:00 to 13:10 28.08 27.95 28.08 27.99 27.99 28.00
10/15/2015 13:00 to 12:10 28.02 27.98 28.16 28.01 28.13 27.99
10/15/2015 12:00 to 11:10 28.02 27.98 28.05 27.96 27.98 28.07
10/15/2015 11:00 to 10:10 28.03 28.09 28.11 28.14 28.11 28.24
10/15/2015 10:00 to 9:10 28.25 28.03 28.15 28.35 28.21 28.29
10/15/2015 09:00 to 8:10 28.40 28.27 28.27 28.22 28.33 28.27
10/15/2015 08:00 to 7:10 28.09 27.96 28.26 28.33 28.34 28.37
10/15/2015 07:00 to 6:10 28.26 28.45 28.42 28.49 28.42 28.55
10/15/2015 06:00 to 5:10 28.47 28.39 28.50 28.30 28.54 28.55
10/15/2015 05:00 to 4:10 28.63 28.53 28.62 28.48 28.44 28.45
10/15/2015 04:00 to 3:10 28.47 28.37 28.44 28.56 28.49 28.46
10/15/2015 03:00 to 2:10 28.43 28.48 28.58 28.58 28.74 28.83
10/15/2015 02:00 to 1:10 28.89 28.90 28.91 28.87 28.89 28.83
10/15/2015 01:00 to 0:10 28.80 28.86 28.80 28.86 28.73 28.64